Lokeren, Belgium
Current Conditions -  °F | °C
As of 10:50 AM on Sunday 25 Jan 2015 (Local Time) from EBAW Reporting Station
Drizzle Drizzle  
Wind Chill: 34°   Ceiling: Unl
Heat Index: 39°   Visibility: 5mi
Dew Point: 36°   Wind: 7mph
Humidity: 87%   Direction: 250°WSW
Pressure: 30.45"   Gusts: NA
Location:  51.12°N, 3.97°E
Report Text: EBAW 250950Z 25006KT 8000 -DZ FEW032 04/02 Q1031 TEMPO BKN015
Loading
Personal Weather Stations






























Interactive Weather Map New forecast layout! Learn more

10-Day Weather Forecast

Advertisements
Track Severe Weather on mobile